Time,TemperatureF,DewpointF,PressureIn,WindDirection,WindDirectionDegrees,WindSpeedMPH,WindSpeedGustMPH,Humidity,HourlyPrecipIn,Conditions,Clouds,dailyrainin,SoftwareType,DateUTC
2013-03-25 00:02:00,52.0,46.0,-100.00,West,280,9.0,-999.0,80,0.00,,,-99.99,,2013-03-25 07:02:00,
2013-03-25 00:12:00,52.0,46.0,-100.00,West,280,9.0,-999.0,80,0.00,,,-99.99,,2013-03-25 07:12:00,
2013-03-25 00:21:00,52.0,46.0,-100.00,West,280,9.0,-999.0,80,0.00,,,-99.99,,2013-03-25 07:21:00,
2013-03-25 00:31:00,52.0,46.0,-100.00,West,280,9.0,-999.0,80,0.00,,,-99.99,,2013-03-25 07:31:00,
2013-03-25 00:42:00,52.0,46.0,-100.00,West,280,9.0,-999.0,80,0.00,,,-99.99,,2013-03-25 07:42:00,
2013-03-25 01:02:00,51.0,45.0,-100.00,West,266,9.0,-999.0,82,0.00,,,-99.99,,2013-03-25 08:02:00,
2013-03-25 01:12:00,51.0,45.0,-100.00,West,266,9.0,-999.0,82,0.00,,,-99.99,,2013-03-25 08:12:00,
2013-03-25 01:22:00,51.0,45.0,-100.00,West,266,9.0,-999.0,82,0.00,,,-99.99,,2013-03-25 08:22:00,
2013-03-25 01:32:00,51.0,45.0,-100.00,West,266,9.0,-999.0,82,0.00,,,-99.99,,2013-03-25 08:32:00,
2013-03-25 01:42:00,51.0,45.0,-100.00,West,266,9.0,-999.0,82,0.00,,,-99.99,,2013-03-25 08:42:00,
2013-03-25 02:02:00,49.0,45.0,-100.00,West,261,7.0,-999.0,86,0.00,,,-99.99,,2013-03-25 09:02:00,
2013-03-25 02:12:00,49.0,45.0,-100.00,West,261,7.0,-999.0,86,0.00,,,-99.99,,2013-03-25 09:12:00,
2013-03-25 02:22:00,49.0,45.0,-100.00,West,261,7.0,-999.0,86,0.00,,,-99.99,,2013-03-25 09:22:00,
2013-03-25 02:32:00,49.0,45.0,-100.00,West,261,7.0,-999.0,86,0.00,,,-99.99,,2013-03-25 09:32:00,
2013-03-25 02:42:00,49.0,45.0,-100.00,West,261,7.0,-999.0,86,0.00,,,-99.99,,2013-03-25 09:42:00,
2013-03-25 03:02:00,49.0,45.0,-100.00,WSW,257,9.0,-999.0,88,0.00,,,-99.99,,2013-03-25 10:02:00,
2013-03-25 03:12:00,49.0,45.0,-100.00,WSW,257,9.0,-999.0,88,0.00,,,-99.99,,2013-03-25 10:12:00,
2013-03-25 03:22:00,49.0,45.0,-100.00,WSW,257,9.0,-999.0,88,0.00,,,-99.99,,2013-03-25 10:22:00,
2013-03-25 03:32:00,49.0,45.0,-100.00,WSW,257,9.0,-999.0,88,0.00,,,-99.99,,2013-03-25 10:32:00,
2013-03-25 03:42:00,49.0,45.0,-100.00,WSW,257,9.0,-999.0,88,0.00,,,-99.99,,2013-03-25 10:42:00,
2013-03-25 04:03:00,49.0,45.0,-100.00,West,266,11.0,-999.0,87,0.00,,,-99.99,,2013-03-25 11:03:00,
2013-03-25 04:12:00,49.0,45.0,-100.00,West,266,11.0,-999.0,87,0.00,,,-99.99,,2013-03-25 11:12:00,
2013-03-25 04:23:00,49.0,45.0,-100.00,West,266,11.0,-999.0,87,0.00,,,-99.99,,2013-03-25 11:23:00,
2013-03-25 04:32:00,49.0,45.0,-100.00,West,266,11.0,-999.0,87,0.00,,,-99.99,,2013-03-25 11:32:00,
2013-03-25 04:42:00,49.0,45.0,-100.00,West,266,11.0,-999.0,87,0.00,,,-99.99,,2013-03-25 11:42:00,
2013-03-25 05:02:00,47.0,44.0,-100.00,West,270,6.0,-999.0,90,0.00,,,-99.99,,2013-03-25 12:02:00,
2013-03-25 05:12:00,47.0,44.0,-100.00,West,270,6.0,-999.0,90,0.00,,,-99.99,,2013-03-25 12:12:00,
2013-03-25 05:22:00,47.0,44.0,-100.00,West,270,6.0,-999.0,90,0.00,,,-99.99,,2013-03-25 12:22:00,
2013-03-25 05:32:00,47.0,44.0,-100.00,West,270,6.0,-999.0,90,0.00,,,-99.99,,2013-03-25 12:32:00,
2013-03-25 05:41:00,47.0,44.0,-100.00,West,270,6.0,-999.0,90,0.00,,,-99.99,,2013-03-25 12:41:00,
2013-03-25 06:02:00,47.0,44.0,-100.00,West,281,6.0,-999.0,91,0.00,,,-99.99,,2013-03-25 13:02:00,
2013-03-25 06:12:00,47.0,44.0,-100.00,West,281,6.0,-999.0,91,0.00,,,-99.99,,2013-03-25 13:12:00,
2013-03-25 06:22:00,47.0,44.0,-100.00,West,281,6.0,-999.0,91,0.00,,,-99.99,,2013-03-25 13:22:00,
2013-03-25 06:32:00,47.0,44.0,-100.00,West,281,6.0,-999.0,91,0.00,,,-99.99,,2013-03-25 13:32:00,
2013-03-25 06:41:00,47.0,44.0,-100.00,West,281,6.0,-999.0,91,0.00,,,-99.99,,2013-03-25 13:41:00,
2013-03-25 07:03:00,47.0,44.0,-100.00,West,267,12.0,-999.0,90,0.00,,,-99.99,,2013-03-25 14:03:00,
2013-03-25 07:12:00,47.0,44.0,-100.00,West,267,12.0,-999.0,90,0.00,,,-99.99,,2013-03-25 14:12:00,
2013-03-25 07:22:00,47.0,44.0,-100.00,West,267,12.0,-999.0,90,0.00,,,-99.99,,2013-03-25 14:22:00,
2013-03-25 07:32:00,47.0,44.0,-100.00,West,267,12.0,-999.0,90,0.00,,,-99.99,,2013-03-25 14:32:00,
2013-03-25 07:41:00,47.0,44.0,-100.00,West,267,12.0,-999.0,90,0.00,,,-99.99,,2013-03-25 14:41:00,
2013-03-25 08:02:00,45.0,43.0,-100.00,WNW,284,3.0,-999.0,92,0.00,,,-99.99,,2013-03-25 15:02:00,
2013-03-25 08:12:00,45.0,43.0,-100.00,WNW,284,3.0,-999.0,92,0.00,,,-99.99,,2013-03-25 15:12:00,
2013-03-25 08:22:00,45.0,43.0,-100.00,WNW,284,3.0,-999.0,92,0.00,,,-99.99,,2013-03-25 15:22:00,
2013-03-25 08:32:00,45.0,43.0,-100.00,WNW,284,3.0,-999.0,92,0.00,,,-99.99,,2013-03-25 15:32:00,
2013-03-25 08:42:00,45.0,43.0,-100.00,WNW,284,3.0,-999.0,92,0.00,,,-99.99,,2013-03-25 15:42:00,
2013-03-25 09:03:00,49.0,45.0,-100.00,WSW,258,6.0,-999.0,86,0.00,,,-99.99,,2013-03-25 16:03:00,
2013-03-25 09:12:00,49.0,45.0,-100.00,WSW,258,6.0,-999.0,86,0.00,,,-99.99,,2013-03-25 16:12:00,
2013-03-25 09:22:00,49.0,45.0,-100.00,WSW,258,6.0,-999.0,86,0.00,,,-99.99,,2013-03-25 16:22:00,
2013-03-25 09:32:00,49.0,45.0,-100.00,WSW,258,6.0,-999.0,86,0.00,,,-99.99,,2013-03-25 16:32:00,
2013-03-25 09:42:00,49.0,45.0,-100.00,WSW,258,6.0,-999.0,86,0.00,,,-99.99,,2013-03-25 16:42:00,
2013-03-25 10:02:00,52.0,45.0,-100.00,West,278,9.0,-999.0,79,0.00,,,-99.99,,2013-03-25 17:02:00,
2013-03-25 10:12:00,52.0,45.0,-100.00,West,278,9.0,-999.0,79,0.00,,,-99.99,,2013-03-25 17:12:00,
2013-03-25 10:23:00,52.0,45.0,-100.00,West,278,9.0,-999.0,79,0.00,,,-99.99,,2013-03-25 17:23:00,
2013-03-25 10:32:00,52.0,45.0,-100.00,West,278,9.0,-999.0,79,0.00,,,-99.99,,2013-03-25 17:32:00,
2013-03-25 10:42:00,52.0,45.0,-100.00,West,278,9.0,-999.0,79,0.00,,,-99.99,,2013-03-25 17:42:00,
2013-03-25 11:03:00,54.0,45.0,-100.00,WNW,286,14.0,-999.0,73,0.00,,,-99.99,,2013-03-25 18:03:00,
2013-03-25 11:12:00,54.0,45.0,-100.00,WNW,286,14.0,-999.0,73,0.00,,,-99.99,,2013-03-25 18:12:00,
2013-03-25 11:22:00,54.0,45.0,-100.00,WNW,286,14.0,-999.0,73,0.00,,,-99.99,,2013-03-25 18:22:00,
2013-03-25 11:32:00,54.0,45.0,-100.00,WNW,286,14.0,-999.0,73,0.00,,,-99.99,,2013-03-25 18:32:00,
2013-03-25 11:41:00,54.0,45.0,-100.00,WNW,286,14.0,-999.0,73,0.00,,,-99.99,,2013-03-25 18:41:00,
2013-03-25 12:02:00,54.0,45.0,-100.00,West,278,16.0,-999.0,70,0.00,,,-99.99,,2013-03-25 19:02:00,
2013-03-25 12:12:00,54.0,45.0,-100.00,West,278,16.0,-999.0,70,0.00,,,-99.99,,2013-03-25 19:12:00,
2013-03-25 12:22:00,54.0,45.0,-100.00,West,278,16.0,-999.0,70,0.00,,,-99.99,,2013-03-25 19:22:00,
2013-03-25 12:32:00,54.0,45.0,-100.00,West,278,16.0,-999.0,70,0.00,,,-99.99,,2013-03-25 19:32:00,
2013-03-25 12:42:00,54.0,45.0,-100.00,West,278,16.0,-999.0,70,0.00,,,-99.99,,2013-03-25 19:42:00,
2013-03-25 13:02:00,57.0,45.0,-100.00,West,273,15.0,-999.0,64,0.00,,,-99.99,,2013-03-25 20:02:00,
2013-03-25 13:12:00,57.0,45.0,-100.00,West,273,15.0,-999.0,64,0.00,,,-99.99,,2013-03-25 20:12:00,
2013-03-25 13:22:00,57.0,45.0,-100.00,West,273,15.0,-999.0,64,0.00,,,-99.99,,2013-03-25 20:22:00,
2013-03-25 13:32:00,57.0,45.0,-100.00,West,273,15.0,-999.0,64,0.00,,,-99.99,,2013-03-25 20:32:00,
2013-03-25 13:41:00,57.0,45.0,-100.00,West,273,15.0,-999.0,64,0.00,,,-99.99,,2013-03-25 20:41:00,
2013-03-25 14:02:00,58.0,46.0,-100.00,West,270,15.0,-999.0,65,0.00,,,-99.99,,2013-03-25 21:02:00,
2013-03-25 14:22:00,58.0,46.0,-100.00,West,270,15.0,-999.0,65,0.00,,,-99.99,,2013-03-25 21:22:00,
2013-03-25 14:32:00,58.0,46.0,-100.00,West,270,15.0,-999.0,65,0.00,,,-99.99,,2013-03-25 21:32:00,
2013-03-25 14:42:00,58.0,46.0,-100.00,West,270,15.0,-999.0,65,0.00,,,-99.99,,2013-03-25 21:42:00,
2013-03-25 15:03:00,59.0,45.0,-100.00,West,275,15.0,-999.0,59,0.00,,,-99.99,,2013-03-25 22:03:00,
2013-03-25 15:12:00,59.0,45.0,-100.00,West,275,15.0,-999.0,59,0.00,,,-99.99,,2013-03-25 22:12:00,
2013-03-25 15:23:00,59.0,45.0,-100.00,West,275,15.0,-999.0,59,0.00,,,-99.99,,2013-03-25 22:23:00,
2013-03-25 15:32:00,59.0,45.0,-100.00,West,275,15.0,-999.0,59,0.00,,,-99.99,,2013-03-25 22:32:00,
2013-03-25 15:42:00,59.0,45.0,-100.00,West,275,15.0,-999.0,59,0.00,,,-99.99,,2013-03-25 22:42:00,
2013-03-25 16:02:00,60.0,45.0,-100.00,West,269,16.0,-999.0,56,0.00,,,-99.99,,2013-03-25 23:02:00,
2013-03-25 16:12:00,60.0,45.0,-100.00,West,269,16.0,-999.0,56,0.00,,,-99.99,,2013-03-25 23:12:00,
2013-03-25 16:22:00,60.0,45.0,-100.00,West,269,16.0,-999.0,56,0.00,,,-99.99,,2013-03-25 23:22:00,
2013-03-25 16:32:00,60.0,45.0,-100.00,West,269,16.0,-999.0,56,0.00,,,-99.99,,2013-03-25 23:32:00,
2013-03-25 16:42:00,60.0,45.0,-100.00,West,269,16.0,-999.0,56,0.00,,,-99.99,,2013-03-25 23:42:00,
2013-03-25 17:02:00,58.0,44.0,-100.00,WNW,289,16.0,-999.0,60,0.00,,,-99.99,,2013-03-26 00:02:00,
2013-03-25 17:12:00,58.0,44.0,-100.00,WNW,289,16.0,-999.0,60,0.00,,,-99.99,,2013-03-26 00:12:00,
2013-03-25 17:22:00,58.0,44.0,-100.00,WNW,289,16.0,-999.0,60,0.00,,,-99.99,,2013-03-26 00:22:00,
2013-03-25 17:32:00,58.0,44.0,-100.00,WNW,289,16.0,-999.0,60,0.00,,,-99.99,,2013-03-26 00:32:00,
2013-03-25 17:42:00,58.0,44.0,-100.00,WNW,289,16.0,-999.0,60,0.00,,,-99.99,,2013-03-26 00:42:00,
2013-03-25 18:02:00,56.0,43.0,-100.00,WNW,285,15.0,-999.0,62,0.00,,,-99.99,,2013-03-26 01:02:00,
2013-03-25 18:12:00,56.0,43.0,-100.00,WNW,285,15.0,-999.0,62,0.00,,,-99.99,,2013-03-26 01:12:00,
2013-03-25 18:22:00,56.0,43.0,-100.00,WNW,285,15.0,-999.0,62,0.00,,,-99.99,,2013-03-26 01:22:00,
2013-03-25 18:32:00,56.0,43.0,-100.00,WNW,285,15.0,-999.0,62,0.00,,,-99.99,,2013-03-26 01:32:00,
2013-03-25 18:41:00,56.0,43.0,-100.00,WNW,285,15.0,-999.0,62,0.00,,,-99.99,,2013-03-26 01:41:00,
2013-03-25 19:02:00,54.0,43.0,-100.00,WNW,282,12.0,-999.0,66,0.00,,,-99.99,,2013-03-26 02:02:00,
2013-03-25 19:12:00,54.0,43.0,-100.00,WNW,282,12.0,-999.0,66,0.00,,,-99.99,,2013-03-26 02:12:00,
2013-03-25 19:22:00,54.0,43.0,-100.00,WNW,282,12.0,-999.0,66,0.00,,,-99.99,,2013-03-26 02:22:00,
2013-03-25 19:31:00,54.0,43.0,-100.00,WNW,282,12.0,-999.0,66,0.00,,,-99.99,,2013-03-26 02:31:00,
2013-03-25 19:41:00,54.0,43.0,-100.00,WNW,282,12.0,-999.0,66,0.00,,,-99.99,,2013-03-26 02:41:00,
2013-03-25 20:02:00,50.0,42.0,-100.00,West,262,16.0,-999.0,74,0.00,,,-99.99,,2013-03-26 03:02:00,
2013-03-25 20:12:00,50.0,42.0,-100.00,West,262,16.0,-999.0,74,0.00,,,-99.99,,2013-03-26 03:12:00,
2013-03-25 20:22:00,50.0,42.0,-100.00,West,262,16.0,-999.0,74,0.00,,,-99.99,,2013-03-26 03:22:00,
2013-03-25 20:33:00,50.0,42.0,-100.00,West,262,16.0,-999.0,74,0.00,,,-99.99,,2013-03-26 03:33:00,
2013-03-25 20:42:00,50.0,42.0,-100.00,West,262,16.0,-999.0,74,0.00,,,-99.99,,2013-03-26 03:42:00,
2013-03-25 21:03:00,49.0,42.0,-100.00,West,266,10.0,-999.0,76,0.00,,,-99.99,,2013-03-26 04:03:00,
2013-03-25 21:12:00,49.0,42.0,-100.00,West,266,10.0,-999.0,76,0.00,,,-99.99,,2013-03-26 04:12:00,
2013-03-25 21:23:00,49.0,42.0,-100.00,West,266,10.0,-999.0,76,0.00,,,-99.99,,2013-03-26 04:23:00,
2013-03-25 21:32:00,49.0,42.0,-100.00,West,266,10.0,-999.0,76,0.00,,,-99.99,,2013-03-26 04:32:00,
2013-03-25 21:42:00,49.0,42.0,-100.00,West,266,10.0,-999.0,76,0.00,,,-99.99,,2013-03-26 04:42:00,
2013-03-25 22:02:00,49.0,42.0,-100.00,West,270,12.0,-999.0,77,0.00,,,-99.99,,2013-03-26 05:02:00,
2013-03-25 22:12:00,49.0,42.0,-100.00,West,270,12.0,-999.0,77,0.00,,,-99.99,,2013-03-26 05:12:00,
2013-03-25 22:22:00,49.0,42.0,-100.00,West,270,12.0,-999.0,77,0.00,,,-99.99,,2013-03-26 05:22:00,
2013-03-25 22:32:00,49.0,42.0,-100.00,West,270,12.0,-999.0,77,0.00,,,-99.99,,2013-03-26 05:32:00,
2013-03-25 22:41:00,49.0,42.0,-100.00,West,270,12.0,-999.0,77,0.00,,,-99.99,,2013-03-26 05:41:00,
2013-03-25 23:02:00,49.0,43.0,-100.00,West,266,13.0,-999.0,78,0.00,,,-99.99,,2013-03-26 06:02:00,
2013-03-25 23:12:00,49.0,43.0,-100.00,West,266,13.0,-999.0,78,0.00,,,-99.99,,2013-03-26 06:12:00,
2013-03-25 23:22:00,49.0,43.0,-100.00,West,266,13.0,-999.0,78,0.00,,,-99.99,,2013-03-26 06:22:00,
2013-03-25 23:32:00,49.0,43.0,-100.00,West,266,13.0,-999.0,78,0.00,,,-99.99,,2013-03-26 06:32:00,
2013-03-25 23:41:00,49.0,43.0,-100.00,West,266,13.0,-999.0,78,0.00,,,-99.99,,2013-03-26 06:41:00,